Time;durP1;ratioP1;P1;durP2;ratioP2;P2;SDS_P1;SDS_P2;PMS_P1;PMS_P2;Temp;Humidity;BMP_temperature;BMP_pressure;BME280_temperature;BME280_humidity;BME280_pressure;Samples;Min_cycle;Max_cycle;Signal;HPM_P1;HPM_P2
2023/01/24 00:01:20;;;;;;;28.35;14.63;;;;;;;3.81;100.00;101719.53;5013727;28;20038;-67
2023/01/24 00:03:46;;;;;;;33.10;17.58;;;;;;;4.04;100.00;101773.00;5013442;28;20091;-68
2023/01/24 00:06:12;;;;;;;29.83;14.65;;;;;;;3.62;100.00;101707.28;5012545;28;20034;-70
2023/01/24 00:08:37;;;;;;;31.67;16.08;;;;;;;3.66;100.00;101708.19;5013582;28;20034;-68
2023/01/24 00:11:09;;;;;;;26.77;13.93;;;;;;;4.01;100.00;101777.94;5011905;28;20038;-68
2023/01/24 00:13:35;;;;;;;26.10;13.98;;;;;;;3.57;100.00;101691.19;5012352;28;20041;-69
2023/01/24 00:16:07;;;;;;;28.38;14.40;;;;;;;3.68;100.00;101729.22;5012659;28;20054;-67
2023/01/24 00:18:32;;;;;;;;;;;;;;;4.23;100.00;101811.28;5012374;28;20064;-68
2023/01/24 00:21:09;;;;;;;25.35;12.48;;;;;;;3.63;100.00;101730.72;5013352;28;19913;-68
2023/01/24 00:23:37;;;;;;;24.05;16.50;;;;;;;3.91;100.00;101781.84;5011682;28;20411;-68
2023/01/24 00:26:03;;;;;;;26.50;15.88;;;;;;;3.47;100.00;101715.22;5011646;28;20121;-68
2023/01/24 00:28:30;;;;;;;25.33;14.82;;;;;;;3.97;100.00;101788.72;5012954;28;20045;-68
2023/01/24 00:30:55;;;;;;;28.63;17.42;;;;;;;3.91;100.00;101791.06;5013881;28;20034;-67
2023/01/24 00:33:20;;;;;;;31.38;18.85;;;;;;;3.96;100.00;101784.50;5015957;28;20072;-67
2023/01/24 00:35:46;;;;;;;25.27;14.02;;;;;;;3.50;100.00;101722.88;5012197;28;20120;-68
2023/01/24 00:38:11;;;;;;;28.40;14.45;;;;;;;3.85;100.00;101800.94;5012489;28;20475;-70
2023/01/24 00:40:36;;;;;;;31.75;16.77;;;;;;;3.83;100.00;101795.03;5012423;28;20030;-68
2023/01/24 00:43:02;;;;;;;30.38;17.42;;;;;;;3.97;100.00;101799.66;5010876;28;20400;-68
2023/01/24 00:45:27;;;;;;;25.60;13.75;;;;;;;3.46;100.00;101732.78;5012886;28;20030;-68
2023/01/24 00:47:53;;;;;;;29.92;15.10;;;;;;;3.83;100.00;101798.41;5012590;28;20563;-68
2023/01/24 00:50:19;;;;;;;27.88;13.90;;;;;;;3.26;100.00;101706.22;5011477;28;20033;-67
2023/01/24 00:52:44;;;;;;;28.17;14.20;;;;;;;3.78;100.00;101796.56;5011066;28;20357;-68
2023/01/24 00:55:10;;;;;;;28.05;13.60;;;;;;;3.66;100.00;101791.19;5010833;28;20172;-70
2023/01/24 00:57:35;;;;;;;24.85;13.52;;;;;;;3.65;100.00;101790.31;5010730;28;20076;-68
2023/01/24 01:00:01;;;;;;;25.95;14.43;;;;;;;3.70;100.00;101793.84;5010762;28;20034;-68
2023/01/24 01:02:26;;;;;;;29.55;13.95;;;;;;;3.32;100.00;101739.91;5012082;28;20026;-68
2023/01/24 01:04:51;;;;;;;29.08;14.23;;;;;;;3.47;100.00;101737.84;5012020;28;20045;-68
2023/01/24 01:07:17;;;;;;;25.15;13.23;;;;;;;3.71;100.00;101808.09;5012350;28;20030;-68
2023/01/24 01:09:42;;;;;;;27.55;14.13;;;;;;;3.85;100.00;101801.81;5012303;28;20092;-68
2023/01/24 01:12:08;;;;;;;28.40;14.10;;;;;;;3.81;100.00;101804.19;5012246;28;20068;-67
2023/01/24 01:14:33;;;;;;;28.52;13.00;;;;;;;3.19;100.00;101724.44;5010481;28;20034;-67
2023/01/24 01:16:59;;;;;;;25.17;13.38;;;;;;;3.37;100.00;101776.06;5011773;28;20546;-67
2023/01/24 01:19:24;;;;;;;21.75;12.55;;;;;;;3.20;100.00;101749.59;5010619;28;20041;-68
2023/01/24 01:21:49;;;;;;;23.45;12.93;;;;;;;3.36;100.00;101813.75;5012312;28;20029;-68
2023/01/24 01:24:15;;;;;;;24.58;13.30;;;;;;;3.64;100.00;101838.06;5010478;28;20080;-68
2023/01/24 01:26:41;;;;;;;24.80;11.88;;;;;;;3.45;100.00;101837.50;5010491;28;20054;-68
2023/01/24 01:29:06;;;;;;;24.77;12.50;;;;;;;3.04;100.00;101765.00;5010034;28;20407;-67
2023/01/24 01:31:32;;;;;;;25.80;13.10;;;;;;;3.29;100.00;101824.38;5011598;28;20034;-68
2023/01/24 01:33:57;;;;;;;24.13;12.55;;;;;;;2.74;100.00;101731.38;5011479;28;20424;-69
2023/01/24 01:36:22;;;;;;;19.23;10.93;;;;;;;2.71;100.00;101741.34;5011624;28;20034;-69
2023/01/24 01:38:48;;;;;;;23.83;11.30;;;;;;;3.19;100.00;101843.34;5010262;28;20749;-68
2023/01/24 01:41:14;;;;;;;24.98;13.00;;;;;;;2.71;100.00;101748.88;5011377;28;20092;-69
2023/01/24 01:44:37;;;;;;;23.75;12.43;;;;;;;3.14;100.00;101839.00;5011157;28;20100;-68
2023/01/24 01:46:34;;;;;;;22.63;12.40;;;;;;;3.08;100.00;101819.56;5010538;28;20034;-69
2023/01/24 01:49:03;;;;;;;23.20;12.68;;;;;;;3.13;100.00;101838.13;5010136;28;20084;-68
2023/01/24 01:51:37;;;;;;;24.08;12.70;;;;;;;3.18;100.00;101835.78;5011600;28;20029;-69
2023/01/24 01:54:16;;;;;;;23.35;12.40;;;;;;;3.13;100.00;101832.28;5010456;28;20066;-69
2023/01/24 01:56:52;;;;;;;24.23;12.52;;;;;;;2.25;100.00;101676.25;5011480;28;20032;-69
2023/01/24 01:59:29;;;;;;;22.02;12.73;;;;;;;3.17;100.00;101841.63;5010701;28;20037;-69
2023/01/24 02:01:57;;;;;;;24.52;12.95;;;;;;;2.95;100.00;101799.03;5010983;28;20541;-69
2023/01/24 02:04:27;;;;;;;26.45;13.27;;;;;;;2.48;100.00;101742.25;5009759;28;20041;-69
2023/01/24 02:07:09;;;;;;;22.52;13.32;;;;;;;3.01;100.00;101821.84;5011001;28;20034;-69
2023/01/24 02:09:39;;;;;;;21.80;11.95;;;;;;;3.08;100.00;101837.16;5011315;28;20555;-68
2023/01/24 02:12:10;;;;;;;21.70;10.88;;;;;;;2.57;100.00;101748.44;5010957;28;20030;-68
2023/01/24 02:17:22;;;;;;;19.90;11.15;;;;;;;3.07;100.00;101829.56;5011044;28;20088;-69
2023/01/24 02:19:50;;;;;;;22.83;11.55;;;;;;;2.99;100.00;101834.31;5011081;28;20076;-69
2023/01/24 02:22:45;;;;;;;19.65;11.48;;;;;;;2.86;100.00;101826.34;5011277;28;20420;-69
2023/01/24 02:25:30;;;;;;;19.50;10.70;;;;;;;2.83;100.00;101837.16;4984270;28;20186;-69
2023/01/24 02:27:58;;;;;;;18.98;10.20;;;;;;;2.61;100.00;101780.34;5011211;28;20487;-69
2023/01/24 02:30:23;;;;;;;20.02;10.75;;;;;;;2.61;100.00;101782.84;5009663;28;20116;-69
2023/01/24 02:32:48;;;;;;;21.52;10.38;;;;;;;2.57;100.00;101785.22;5010365;28;20121;-68
2023/01/24 02:35:29;;;;;;;21.52;10.40;;;;;;;2.79;100.00;101815.28;5010813;28;20030;-68
2023/01/24 02:37:58;;;;;;;21.42;11.10;;;;;;;2.92;100.00;101826.53;5011079;28;20053;-69
2023/01/24 02:40:26;;;;;;;20.27;9.32;;;;;;;2.78;100.00;101823.59;5010447;28;20092;-68
2023/01/24 02:42:55;;;;;;;17.63;9.27;;;;;;;2.30;100.00;101731.59;5010716;28;20036;-68
2023/01/24 02:45:25;;;;;;;18.77;9.75;;;;;;;1.85;100.00;101670.72;5009564;28;20032;-69
2023/01/24 02:47:52;;;;;;;15.27;8.77;;;;;;;2.26;100.00;101740.66;5009448;28;20042;-68
2023/01/24 02:50:20;;;;;;;15.00;8.93;;;;;;;2.31;100.00;101748.38;5010552;28;20085;-69
2023/01/24 02:55:30;;;;;;;16.80;9.80;;;;;;;2.89;100.00;101827.31;5010636;28;20076;-68
2023/01/24 02:58:06;;;;;;;13.55;8.15;;;;;;;2.40;100.00;101756.19;5010242;28;20109;-68
2023/01/24 03:00:39;;;;;;;14.95;8.48;;;;;;;2.87;100.00;101828.94;5010597;28;20319;-68
2023/01/24 03:03:05;;;;;;;15.38;8.68;;;;;;;2.78;100.00;101818.56;5006168;28;20069;-68
2023/01/24 03:05:39;;;;;;;14.68;8.07;;;;;;;2.72;100.00;101807.47;5010044;28;20041;-68
2023/01/24 03:08:07;;;;;;;16.27;8.80;;;;;;;2.22;100.00;101716.28;5025357;28;20037;-68
2023/01/24 03:10:33;;;;;;;16.52;9.38;;;;;;;2.94;100.00;101840.00;5025122;28;20026;-67
2023/01/24 03:34:50;;;;;;;12.70;7.20;;;;;;;2.89;100.00;101832.34;5009969;28;20040;-70
2023/01/24 03:40:08;;;;;;;12.48;7.20;;;;;;;2.95;100.00;101817.44;5010218;28;20095;-70
2023/01/24 03:42:34;;;;;;;11.73;6.85;;;;;;;2.77;100.00;101794.28;5008369;28;20424;-69
2023/01/24 03:45:00;;;;;;;14.40;7.70;;;;;;;2.30;100.00;101721.56;5008560;28;20029;-70
2023/01/24 03:47:25;;;;;;;12.43;7.25;;;;;;;2.48;100.00;101763.19;5009811;28;20060;-70
2023/01/24 03:52:34;;;;;;;12.75;7.32;;;;;;;2.59;100.00;101730.91;5010125;28;20096;-66
2023/01/24 03:55:00;;;;;;;13.88;7.43;;;;;;;2.72;100.00;101782.34;5009844;28;20042;-67
2023/01/24 03:57:28;;;;;;;11.73;6.57;;;;;;;2.94;100.00;101805.72;5010655;28;20034;-66
2023/01/24 03:59:54;;;;;;;11.55;6.45;;;;;;;2.75;100.00;101795.03;5012909;28;20052;-67
2023/01/24 04:02:20;;;;;;;11.65;7.03;;;;;;;2.79;100.00;101802.72;5010825;28;20402;-67
2023/01/24 04:07:30;;;;;;;11.02;6.70;;;;;;;3.10;100.00;101828.00;5009141;28;20052;-70
2023/01/24 04:09:57;;;;;;;11.45;6.93;;;;;;;3.17;100.00;101816.50;4999141;28;20504;-68
2023/01/24 04:12:23;;;;;;;13.20;7.20;;;;;;;3.02;100.00;101786.72;5003241;28;20409;-67
2023/01/24 04:14:48;;;;;;;11.38;7.05;;;;;;;4.14;100.00;101822.75;5009498;28;20044;-68
2023/01/24 04:17:14;;;;;;;11.85;7.35;;;;;;;3.17;100.00;101850.00;5011111;28;20053;-70
2023/01/24 04:19:39;;;;;;;13.45;7.53;;;;;;;3.33;100.00;101829.56;5012685;28;20026;-71
2023/01/24 04:22:05;;;;;;;11.43;7.30;;;;;;;3.22;100.00;101825.03;5011590;28;20041;-71
2023/01/24 04:24:30;;;;;;;10.57;6.50;;;;;;;2.35;100.00;101730.97;5013078;28;20029;-71
2023/01/24 04:26:55;;;;;;;11.48;6.40;;;;;;;3.04;100.00;101814.38;5011724;28;20032;-68
2023/01/24 04:29:21;;;;;;;12.02;6.65;;;;;;;2.61;100.00;101741.84;5013233;28;20504;-70
2023/01/24 04:31:46;;;;;;;11.70;6.32;;;;;;;1.99;100.00;101672.03;5011751;28;20123;-68
2023/01/24 04:34:12;;;;;;;11.15;7.00;;;;;;;2.77;100.00;101791.75;5010525;28;20130;-69
2023/01/24 04:36:37;;;;;;;10.40;7.15;;;;;;;2.94;100.00;101828.31;5010773;28;20708;-71
2023/01/24 04:39:03;;;;;;;12.88;7.90;;;;;;;2.59;100.00;101743.47;5011292;28;20034;-68
2023/01/24 04:41:28;;;;;;;12.82;7.60;;;;;;;3.34;100.00;101827.91;5012574;28;20030;-69
2023/01/24 04:43:54;;;;;;;15.05;9.27;;;;;;;2.96;100.00;101820.81;5005126;28;20397;-71
2023/01/24 04:46:20;;;;;;;12.75;8.10;;;;;;;2.82;100.00;101817.00;4993327;28;20421;-71
2023/01/24 04:48:45;;;;;;;12.60;7.10;;;;;;;2.67;100.00;101768.00;4993155;28;20038;-69
2023/01/24 04:51:11;;;;;;;11.45;7.18;;;;;;;2.58;100.00;101742.59;4992867;28;20080;-70
2023/01/24 04:53:40;;;;;;;11.10;7.22;;;;;;;3.42;100.00;101842.44;4993068;28;20026;-68
2023/01/24 04:56:07;;;;;;;14.63;8.07;;;;;;;3.54;100.00;101836.94;4992965;28;20515;-71
2023/01/24 04:58:34;;;;;;;16.23;9.18;;;;;;;2.75;100.00;101752.34;4992496;28;20173;-70
2023/01/24 05:01:00;;;;;;;14.55;8.77;;;;;;;2.73;100.00;101747.28;5011112;28;20037;-67
2023/01/24 05:03:26;;;;;;;15.48;9.20;;;;;;;3.22;100.00;101835.06;5012379;28;20152;-68
2023/01/24 05:05:52;;;;;;;16.02;9.73;;;;;;;3.04;100.00;101822.78;5010715;28;20128;-67
2023/01/24 05:08:18;;;;;;;13.10;8.40;;;;;;;2.42;100.00;101726.97;5010734;28;20034;-68
2023/01/24 05:10:43;;;;;;;11.27;6.53;;;;;;;2.16;100.00;101697.69;5012124;28;20029;-68
2023/01/24 05:13:09;;;;;;;14.13;7.97;;;;;;;2.44;100.00;101756.34;5012035;28;20034;-68
2023/01/24 05:15:35;;;;;;;14.48;6.93;;;;;;;2.87;100.00;101833.94;5011367;28;20056;-68
2023/01/24 05:18:01;;;;;;;14.65;8.85;;;;;;;2.84;100.00;101823.78;5012045;28;20034;-69
2023/01/24 05:20:27;;;;;;;13.82;7.90;;;;;;;2.47;100.00;101771.53;5011683;28;20381;-71
2023/01/24 05:22:55;;;;;;;12.23;7.60;;;;;;;2.52;100.00;101759.97;5011490;28;20191;-67
2023/01/24 05:25:21;;;;;;;11.25;6.60;;;;;;;2.96;100.00;101840.91;5010478;28;20033;-67
2023/01/24 05:27:46;;;;;;;11.25;6.57;;;;;;;2.32;100.00;101757.59;5012240;28;20037;-69
2023/01/24 05:30:12;;;;;;;11.38;6.95;;;;;;;2.38;100.00;101770.34;5011521;28;20552;-69
2023/01/24 05:32:37;;;;;;;13.50;7.78;;;;;;;2.40;100.00;101757.03;5011500;28;20038;-68
2023/01/24 05:35:04;;;;;;;15.52;8.23;;;;;;;2.65;100.00;101774.63;5010972;28;20148;-69
2023/01/24 05:37:30;;;;;;;15.77;8.90;;;;;;;2.84;100.00;101775.22;4995609;28;20160;-67
2023/01/24 05:39:55;;;;;;;14.00;7.78;;;;;;;2.91;100.00;101819.84;4997937;28;20114;-69
2023/01/24 05:42:21;;;;;;;15.88;8.02;;;;;;;2.58;100.00;101772.72;4992114;28;20026;-68
2023/01/24 05:44:46;;;;;;;14.75;7.78;;;;;;;3.02;100.00;101873.78;4991948;28;20026;-69
2023/01/24 05:47:12;;;;;;;13.32;8.07;;;;;;;2.93;100.00;101783.06;4991799;28;20031;-66
2023/01/24 05:49:37;;;;;;;12.63;7.65;;;;;;;4.33;100.00;101868.63;4990620;28;20030;-67
2023/01/24 05:52:03;;;;;;;12.98;7.50;;;;;;;1.95;100.00;101730.41;4991449;28;20049;-69
2023/01/24 05:54:28;;;;;;;18.25;10.57;;;;;;;2.22;100.00;101770.63;5006478;28;20030;-70
2023/01/24 05:56:54;;;;;;;12.95;7.38;;;;;;;2.69;100.00;101858.44;4991652;28;20420;-69
2023/01/24 05:59:19;;;;;;;12.90;7.80;;;;;;;2.71;100.00;101845.94;4991344;28;20038;-69
2023/01/24 06:01:45;;;;;;;16.40;9.90;;;;;;;2.46;100.00;101786.50;4990773;28;20139;-69
2023/01/24 06:04:10;;;;;;;14.90;9.55;;;;;;;2.81;100.00;101861.38;4991502;28;20038;-69
2023/01/24 06:06:35;;;;;;;13.55;9.70;;;;;;;2.86;100.00;101862.38;5006028;28;20038;-69
2023/01/24 06:09:01;;;;;;;19.60;13.73;;;;;;;2.69;100.00;101835.00;5006207;28;20030;-69
2023/01/24 06:11:27;;;;;;;18.33;13.85;;;;;;;2.82;100.00;101849.66;4991079;28;20037;-69
2023/01/24 06:13:54;;;;;;;22.10;17.13;;;;;;;2.96;100.00;101897.03;4990651;28;20042;-69
2023/01/24 06:16:23;;;;;;;17.75;11.30;;;;;;;2.30;100.00;101789.28;4990721;28;20497;-69
2023/01/24 06:18:49;;;;;;;18.30;11.77;;;;;;;2.82;100.00;101857.19;4990570;28;20026;-69
2023/01/24 06:21:33;;;;;;;18.35;12.55;;;;;;;2.97;100.00;101895.38;4991127;28;20088;-70
2023/01/24 06:23:59;;;;;;;15.07;9.75;;;;;;;2.49;100.00;101810.06;4991454;28;20034;-69
2023/01/24 06:26:24;;;;;;;14.48;8.10;;;;;;;2.91;100.00;101878.44;4991203;28;20081;-69
2023/01/24 06:28:50;;;;;;;14.93;7.40;;;;;;;2.46;100.00;101811.59;4989973;28;20077;-69
2023/01/24 06:31:21;;;;;;;12.85;7.78;;;;;;;2.94;100.00;101901.16;4990633;28;20034;-69
2023/01/24 06:33:59;;;;;;;12.85;7.43;;;;;;;2.95;100.00;101891.97;5006312;28;20073;-69
2023/01/24 06:36:53;;;;;;;13.00;7.55;;;;;;;3.15;100.00;101904.38;5006243;28;20040;-70
2023/01/24 06:39:21;;;;;;;12.50;7.80;;;;;;;2.97;100.00;101898.72;4954471;28;20046;-69
2023/01/24 06:41:47;;;;;;;14.82;7.90;;;;;;;3.01;100.00;101893.00;4990848;28;20112;-69
2023/01/24 06:44:13;;;;;;;14.70;9.02;;;;;;;3.07;100.00;101893.22;4991360;28;20088;-69
2023/01/24 06:46:39;;;;;;;12.90;8.00;;;;;;;2.96;100.00;101886.97;4991301;28;20105;-69
2023/01/24 06:49:04;;;;;;;14.93;7.95;;;;;;;2.64;100.00;101812.22;4991012;28;20023;-69
2023/01/24 06:51:29;;;;;;;14.18;7.60;;;;;;;2.59;100.00;101811.25;4990712;28;20022;-69
2023/01/24 06:53:55;;;;;;;15.55;8.32;;;;;;;2.98;100.00;101887.88;5006038;28;20473;-69
2023/01/24 06:56:20;;;;;;;16.70;10.50;;;;;;;2.98;100.00;101876.97;4990702;28;20035;-70
2023/01/24 06:58:47;;;;;;;17.77;10.20;;;;;;;2.99;100.00;101888.75;4991183;28;20026;-69
2023/01/24 07:01:12;;;;;;;16.52;8.95;;;;;;;2.89;100.00;101887.59;4991028;28;20030;-71
2023/01/24 07:03:38;;;;;;;14.50;9.95;;;;;;;3.00;100.00;101880.41;4990988;28;20026;-71
2023/01/24 07:06:03;;;;;;;16.92;9.40;;;;;;;2.70;100.00;101851.75;4990984;28;20037;-68
2023/01/24 07:08:29;;;;;;;16.75;10.70;;;;;;;2.70;100.00;101809.06;4990879;28;20467;-71
2023/01/24 07:10:57;;;;;;;18.15;11.88;;;;;;;3.16;100.00;101908.59;4990430;28;20030;-68
2023/01/24 07:13:23;;;;;;;22.27;13.70;;;;;;;2.87;100.00;101820.53;4991036;28;20151;-69
2023/01/24 07:15:49;;;;;;;19.95;11.07;;;;;;;3.09;100.00;101880.72;4990616;28;20149;-69
2023/01/24 07:18:17;;;;;;;19.80;11.93;;;;;;;3.22;100.00;101882.81;4990635;28;20439;-69
2023/01/24 07:20:43;;;;;;;20.02;13.30;;;;;;;3.46;100.00;101918.78;4990943;28;20048;-69
2023/01/24 07:23:21;;;;;;;18.95;11.80;;;;;;;3.57;100.00;101911.56;4990491;28;20063;-69
2023/01/24 07:25:48;;;;;;;15.05;9.80;;;;;;;3.07;100.00;101840.44;4991572;28;20030;-69
2023/01/24 07:28:13;;;;;;;13.65;8.10;;;;;;;3.36;100.00;101912.63;5008920;28;20027;-69
2023/01/24 07:30:39;;;;;;;13.40;7.13;;;;;;;3.32;100.00;101888.19;4990819;28;20405;-69
2023/01/24 07:33:04;;;;;;;14.10;8.60;;;;;;;3.37;100.00;101890.84;4990546;28;20113;-69
2023/01/24 07:35:30;;;;;;;18.92;8.98;;;;;;;3.63;100.00;101912.63;5005428;28;20038;-69
2023/01/24 07:37:55;;;;;;;15.98;9.48;;;;;;;3.26;100.00;101835.22;4990244;28;20038;-69
2023/01/24 07:40:20;;;;;;;18.02;9.75;;;;;;;3.27;100.00;101831.91;4990258;28;20069;-68
2023/01/24 07:42:46;;;;;;;14.57;9.05;;;;;;;3.49;100.00;101864.44;4990751;28;20480;-69
2023/01/24 07:45:11;;;;;;;14.88;9.25;;;;;;;3.30;100.00;101811.91;4990722;28;20026;-69
2023/01/24 07:47:36;;;;;;;14.38;9.00;;;;;;;3.58;100.00;101905.75;4990029;28;20030;-69
2023/01/24 07:50:02;;;;;;;17.67;10.35;;;;;;;3.82;100.00;101899.84;4990562;28;20141;-69
2023/01/24 07:52:27;;;;;;;16.63;10.35;;;;;;;3.76;100.00;101888.72;4991449;28;20105;-69
2023/01/24 07:54:53;;;;;;;14.73;8.68;;;;;;;2.82;100.00;101756.75;4993819;28;20493;-69
2023/01/24 07:57:18;;;;;;;21.88;13.98;;;;;;;3.53;100.00;101846.94;5009035;28;20030;-69
2023/01/24 07:59:44;;;;;;;16.02;10.50;;;;;;;3.06;100.00;101770.94;4994374;28;20405;-69
2023/01/24 08:02:11;;;;;;;15.23;8.60;;;;;;;3.76;100.00;101894.63;4993691;28;20030;-68
2023/01/24 08:04:37;;;;;;;15.50;8.82;;;;;;;3.81;100.00;101925.78;5008748;28;20038;-69
2023/01/24 08:07:17;;;;;;;18.30;9.52;;;;;;;3.92;100.00;101921.09;4993535;28;20032;-69
2023/01/24 08:09:44;;;;;;;16.60;9.07;;;;;;;4.20;100.00;101913.50;5008836;28;20577;-69
2023/01/24 08:12:09;;;;;;;16.83;9.75;;;;;;;3.57;100.00;101837.00;4994059;28;20038;-69
2023/01/24 08:14:35;;;;;;;17.95;9.60;;;;;;;3.96;100.00;101870.03;4992234;28;20034;-69
2023/01/24 08:17:00;;;;;;;15.02;8.77;;;;;;;3.96;100.00;101905.28;4993566;28;20409;-69
2023/01/24 08:19:25;;;;;;;14.00;7.63;;;;;;;3.78;100.00;101870.38;4993655;28;20034;-69
2023/01/24 08:21:51;;;;;;;15.45;7.90;;;;;;;3.53;100.00;101836.91;5008269;28;20037;-69
2023/01/24 08:24:16;;;;;;;12.05;7.22;;;;;;;4.06;100.00;101923.19;5008473;28;20037;-69
2023/01/24 08:26:45;;;;;;;11.70;6.65;;;;;;;3.78;100.00;101882.06;5008549;28;20027;-69
2023/01/24 08:29:11;;;;;;;12.38;7.63;;;;;;;3.72;100.00;101846.69;4993675;28;20109;-69
2023/01/24 08:31:37;;;;;;;14.38;7.82;;;;;;;4.29;100.00;101931.41;4993482;28;20032;-68
2023/01/24 08:34:02;;;;;;;13.90;7.72;;;;;;;3.77;100.00;101865.25;5008429;28;20037;-69
2023/01/24 08:36:28;;;;;;;12.80;7.40;;;;;;;3.67;100.00;101823.03;5007894;28;20480;-69
2023/01/24 08:38:53;;;;;;;13.15;7.57;;;;;;;4.20;100.00;101914.38;5008188;28;20108;-69
2023/01/24 08:41:18;;;;;;;10.30;6.38;;;;;;;3.79;100.00;101891.31;4992971;28;20040;-69
2023/01/24 08:43:44;;;;;;;10.20;6.82;;;;;;;3.41;100.00;101772.00;4993280;28;20046;-69
2023/01/24 08:46:09;;;;;;;10.70;6.60;;;;;;;3.79;100.00;101851.94;5001543;28;20026;-71
2023/01/24 08:48:35;;;;;;;12.50;6.13;;;;;;;4.14;100.00;101904.13;5012381;28;20022;-69
2023/01/24 08:51:04;;;;;;;11.77;6.65;;;;;;;4.18;100.00;101900.06;5011109;28;20088;-68
2023/01/24 08:53:30;;;;;;;13.73;7.15;;;;;;;4.13;100.00;101916.69;5010004;28;20404;-70
2023/01/24 08:55:55;;;;;;;10.07;6.22;;;;;;;3.92;100.00;101898.44;5012553;28;20041;-71
2023/01/24 08:58:21;;;;;;;14.32;7.38;;;;;;;4.15;100.00;101908.38;5012688;28;20022;-70
2023/01/24 09:00:47;;;;;;;15.57;8.20;;;;;;;3.96;100.00;101829.78;5012682;28;20037;-70
2023/01/24 09:03:16;;;;;;;13.05;7.15;;;;;;;3.38;100.00;101759.34;5012253;28;20040;-71
2023/01/24 09:05:41;;;;;;;13.82;7.35;;;;;;;4.45;100.00;101908.38;5012059;28;20037;-71
2023/01/24 09:08:07;;;;;;;13.00;6.55;;;;;;;4.35;100.00;101913.97;5012752;28;20037;-71
2023/01/24 09:10:32;;;;;;;6.95;4.72;;;;;;;3.66;100.00;101818.84;5043969;28;20034;-70
2023/01/24 09:12:57;;;;;;;12.20;7.25;;;;;;;3.88;100.00;101786.78;5010848;28;20037;-68
2023/01/24 09:15:23;;;;;;;11.32;6.93;;;;;;;3.90;100.00;101835.47;5012139;28;20145;-71
2023/01/24 09:17:48;;;;;;;10.43;6.38;;;;;;;4.26;100.00;101899.44;5011705;28;20041;-71
2023/01/24 09:20:14;;;;;;;8.93;5.88;;;;;;;4.21;100.00;101897.63;5011955;28;20030;-71
2023/01/24 09:22:39;;;;;;;8.45;5.80;;;;;;;3.88;100.00;101814.47;5010339;28;20029;-69
2023/01/24 09:25:07;;;;;;;8.50;5.57;;;;;;;4.43;100.00;101897.41;5012023;28;20036;-70
2023/01/24 09:27:33;;;;;;;11.23;5.93;;;;;;;4.54;100.00;101902.72;5012314;28;20084;-70
2023/01/24 09:29:58;;;;;;;10.65;6.32;;;;;;;4.09;100.00;101835.22;5011865;28;20034;-70
2023/01/24 09:32:24;;;;;;;9.10;5.30;;;;;;;4.39;100.00;101891.44;5012261;28;20032;-70
2023/01/24 09:34:50;;;;;;;8.00;4.88;;;;;;;4.43;100.00;101912.53;5012167;28;20107;-71
2023/01/24 09:37:19;;;;;;;7.32;4.80;;;;;;;4.35;100.00;101851.91;4994458;28;20030;-70
2023/01/24 09:39:45;;;;;;;10.90;5.18;;;;;;;4.45;100.00;101858.03;5011786;28;20077;-69
2023/01/24 09:42:26;;;;;;;8.93;5.10;;;;;;;4.68;100.00;101884.66;5011898;28;20397;-68
2023/01/24 09:45:07;;;;;;;10.15;5.28;;;;;;;5.10;100.00;101905.94;5010565;28;20030;-69
2023/01/24 09:47:45;;;;;;;7.82;5.07;;;;;;;4.91;100.00;101888.63;5011714;28;20044;-71
2023/01/24 09:50:27;;;;;;;8.82;5.05;;;;;;;4.37;100.00;101812.50;5011823;28;20030;-71
2023/01/24 09:52:55;;;;;;;7.03;4.50;;;;;;;4.96;100.00;101876.16;5011510;28;20038;-69
2023/01/24 09:55:40;;;;;;;8.07;5.05;;;;;;;5.08;100.00;101884.88;5011187;28;20040;-68
2023/01/24 09:58:26;;;;;;;10.55;6.63;;;;;;;5.18;100.00;101880.91;5011795;28;20034;-70
2023/01/24 10:00:52;;;;;;;10.95;6.53;;;;;;;4.85;100.00;101828.00;5011447;28;20515;-71
2023/01/24 10:03:20;;;;;;;8.20;5.45;;;;;;;4.46;100.00;101791.72;5011050;28;20033;-71
2023/01/24 10:05:52;;;;;;;10.18;5.57;;;;;;;4.29;100.00;101723.34;5011486;28;20030;-69
2023/01/24 10:08:20;;;;;;;10.20;5.88;;;;;;;5.05;100.00;101872.19;5011341;28;20029;-71
2023/01/24 10:11:11;;;;;;;8.85;5.75;;;;;;;5.26;100.00;101872.75;4321282;28;10000816;-71
2023/01/24 10:14:03;;;;;;;13.77;7.35;;;;;;;5.04;100.00;101857.03;5041678;28;20052;-71
2023/01/24 10:16:51;;;;;;;9.25;6.22;;;;;;;5.04;100.00;101859.56;5037850;28;20596;-68
2023/01/24 10:19:35;;;;;;;18.23;8.90;;;;;;;5.56;100.00;101861.66;5017756;28;20041;-68
2023/01/24 10:22:12;;;;;;;11.90;7.63;;;;;;;5.21;100.00;101871.75;5045781;28;20037;-71
2023/01/24 10:24:43;;;;;;;9.05;5.55;;;;;;;5.03;100.00;101828.47;5044905;28;20044;-70
2023/01/24 10:27:24;;;;;;;6.97;4.22;;;;;;;4.98;100.00;101812.38;5045553;28;20083;-71
2023/01/24 10:29:57;;;;;;;9.50;5.88;;;;;;;5.00;100.00;101837.63;5044377;28;20044;-71
2023/01/24 10:32:31;;;;;;;9.30;6.00;;;;;;;4.78;100.00;101760.66;5045363;28;20565;-71
2023/01/24 10:35:12;;;;;;;7.55;4.88;;;;;;;4.38;100.00;101763.00;5044367;28;20049;-70
2023/01/24 10:37:42;;;;;;;7.63;5.15;;;;;;;5.15;100.00;101823.72;5045729;28;20044;-69
2023/01/24 10:40:16;;;;;;;7.93;5.40;;;;;;;4.93;100.00;101763.53;5042833;28;20036;-68
2023/01/24 10:42:42;;;;;;;8.13;5.63;;;;;;;4.80;100.00;101745.56;5038982;28;20029;-68
2023/01/24 10:45:35;;;;;;;10.15;5.90;;;;;;;5.21;100.00;101671.75;5006586;28;20033;-67
2023/01/24 10:48:37;;;;;;;9.18;5.78;;;;;;;5.54;100.00;101817.88;5003422;28;20037;-68
2023/01/24 10:51:29;;;;;;;;;;;;;;;5.64;100.00;101810.56;5011227;28;20033;-68
2023/01/24 10:54:01;;;;;;;10.80;6.68;;;;;;;5.48;100.00;101783.31;5012211;28;19929;-68
2023/01/24 10:56:27;;;;;;;11.32;6.75;;;;;;;5.38;100.00;101803.22;5010261;28;20037;-68
2023/01/24 10:59:04;;;;;;;15.48;7.95;;;;;;;5.19;100.00;101815.41;5009922;28;20507;-69
2023/01/24 11:01:48;;;;;;;10.98;6.88;;;;;;;5.45;100.00;101793.31;5008485;28;20030;-68
2023/01/24 11:04:34;;;;;;;10.50;5.70;;;;;;;5.31;100.00;101798.88;5010068;28;20022;-69
2023/01/24 11:07:01;;;;;;;8.18;5.50;;;;;;;4.61;100.00;101709.03;5010188;28;20045;-69
2023/01/24 11:09:34;;;;;;;7.05;4.63;;;;;;;4.63;100.00;101677.19;5010442;28;20563;-69
2023/01/24 11:11:59;;;;;;;8.38;5.43;;;;;;;5.20;100.00;101764.19;5009039;28;20041;-69
2023/01/24 11:14:31;;;;;;;8.20;5.47;;;;;;;4.88;100.00;101707.16;5010165;28;20033;-68
2023/01/24 11:16:59;;;;;;;12.10;7.18;;;;;;;5.18;100.00;101710.38;5009956;28;20049;-68
2023/01/24 11:19:39;;;;;;;10.07;6.00;;;;;;;5.34;100.00;101711.53;5009022;28;20061;-68
2023/01/24 11:22:23;;;;;;;11.13;6.57;;;;;;;5.23;100.00;101736.50;5010170;28;20534;-69
2023/01/24 11:24:49;;;;;;;7.93;5.32;;;;;;;5.08;100.00;101753.81;5009037;28;20461;-69
2023/01/24 11:27:20;;;;;;;9.07;5.70;;;;;;;4.38;100.00;101612.81;5014371;28;20076;-68
2023/01/24 11:30:04;;;;;;;7.65;5.07;;;;;;;5.42;100.00;101749.53;5014319;28;20051;-68
2023/01/24 11:32:50;;;;;;;10.02;5.97;;;;;;;5.45;100.00;101758.00;5014288;28;20033;-68
2023/01/24 11:35:24;;;;;;;9.60;5.43;;;;;;;5.36;100.00;101775.47;5014160;28;20030;-68
2023/01/24 11:38:08;;;;;;;9.32;5.57;;;;;;;5.49;100.00;101766.47;5012738;28;20095;-68
2023/01/24 11:40:40;;;;;;;9.43;5.28;;;;;;;5.56;100.00;101748.16;5013009;28;20034;-68
2023/01/24 11:43:14;;;;;;;10.45;5.50;;;;;;;5.51;100.00;101753.09;5014086;28;20065;-68
2023/01/24 11:45:58;;;;;;;8.45;4.88;;;;;;;5.27;100.00;101753.41;5014068;28;20026;-68
2023/01/24 11:48:54;;;;;;;7.63;5.15;;;;;;;5.77;100.00;101746.06;5013571;28;20030;-70
2023/01/24 11:51:20;;;;;;;7.35;5.28;;;;;;;5.62;100.00;101748.28;5014073;28;20045;-68
2023/01/24 11:53:45;;;;;;;8.18;5.78;;;;;;;5.49;100.00;101748.81;5014162;28;20026;-68
2023/01/24 11:56:21;;;;;;;10.65;5.53;;;;;;;5.72;100.00;101735.88;5012423;28;20096;-70
2023/01/24 11:58:58;;;;;;;9.38;5.55;;;;;;;4.86;100.00;101642.41;5013588;28;20034;-68
2023/01/24 12:01:52;;;;;;;7.57;4.97;;;;;;;5.54;100.00;101759.88;5013628;28;20037;-68